sensor_id;sensor_type;location;lat;lon;timestamp;pressure;altitude;pressure_sealevel;temperature;humidity
59272;BME280;45043;51.068;7.026;2023-02-10T00:02:25;102370.75;;;0.53;55.66
59272;BME280;45043;51.068;7.026;2023-02-10T00:05:26;102369.81;;;0.54;56.04
59272;BME280;45043;51.068;7.026;2023-02-10T00:08:28;102377.41;;;0.59;55.63
59272;BME280;45043;51.068;7.026;2023-02-10T00:11:29;102374.88;;;0.57;56.12
59272;BME280;45043;51.068;7.026;2023-02-10T00:14:47;102376.56;;;0.58;56.06
59272;BME280;45043;51.068;7.026;2023-02-10T00:17:48;102370.34;;;0.61;56.28
59272;BME280;45043;51.068;7.026;2023-02-10T00:20:48;102364.94;;;0.64;56.08
59272;BME280;45043;51.068;7.026;2023-02-10T00:23:49;102374.03;;;0.73;56.01
59272;BME280;45043;51.068;7.026;2023-02-10T00:26:50;102371.09;;;0.79;55.90
59272;BME280;45043;51.068;7.026;2023-02-10T00:29:51;102368.47;;;0.79;55.86
59272;BME280;45043;51.068;7.026;2023-02-10T00:32:51;102374.81;;;0.75;55.79
59272;BME280;45043;51.068;7.026;2023-02-10T00:35:52;102374.03;;;0.73;55.82
59272;BME280;45043;51.068;7.026;2023-02-10T00:38:53;102383.06;;;0.83;55.95
59272;BME280;45043;51.068;7.026;2023-02-10T00:41:54;102383.47;;;0.91;55.57
59272;BME280;45043;51.068;7.026;2023-02-10T00:44:54;102382.28;;;0.97;55.85
59272;BME280;45043;51.068;7.026;2023-02-10T00:47:55;102387.28;;;1.01;55.66
59272;BME280;45043;51.068;7.026;2023-02-10T00:50:55;102373.59;;;0.96;55.82
59272;BME280;45043;51.068;7.026;2023-02-10T00:53:56;102389.41;;;0.79;55.75
59272;BME280;45043;51.068;7.026;2023-02-10T00:56:57;102385.59;;;0.69;56.19
59272;BME280;45043;51.068;7.026;2023-02-10T00:59:58;102387.72;;;0.62;56.63
59272;BME280;45043;51.068;7.026;2023-02-10T01:02:58;102377.75;;;0.53;56.68
59272;BME280;45043;51.068;7.026;2023-02-10T01:06:00;102379.72;;;0.49;57.06
59272;BME280;45043;51.068;7.026;2023-02-10T01:09:01;102384.56;;;0.55;56.86
59272;BME280;45043;51.068;7.026;2023-02-10T01:12:02;102381.78;;;0.58;57.20
59272;BME280;45043;51.068;7.026;2023-02-10T01:15:03;102387.44;;;0.67;57.07
59272;BME280;45043;51.068;7.026;2023-02-10T01:18:03;102394.28;;;0.69;56.79
59272;BME280;45043;51.068;7.026;2023-02-10T01:21:14;102397.75;;;0.70;56.99
59272;BME280;45043;51.068;7.026;2023-02-10T01:24:15;102391.81;;;0.82;56.88
59272;BME280;45043;51.068;7.026;2023-02-10T01:27:15;102399.44;;;0.87;56.97
59272;BME280;45043;51.068;7.026;2023-02-10T01:30:16;102405.56;;;0.86;56.56
59272;BME280;45043;51.068;7.026;2023-02-10T01:33:17;102396.16;;;0.83;56.92
59272;BME280;45043;51.068;7.026;2023-02-10T01:36:19;102402.91;;;0.87;56.66
59272;BME280;45043;51.068;7.026;2023-02-10T01:39:21;102405.41;;;0.89;56.71
59272;BME280;45043;51.068;7.026;2023-02-10T01:42:21;102406.13;;;0.92;56.52
59272;BME280;45043;51.068;7.026;2023-02-10T01:45:38;102409.63;;;0.91;56.41
59272;BME280;45043;51.068;7.026;2023-02-10T01:48:38;102420.09;;;0.91;56.82
59272;BME280;45043;51.068;7.026;2023-02-10T01:52:14;102423.56;;;0.92;56.76
59272;BME280;45043;51.068;7.026;2023-02-10T01:55:18;102412.13;;;0.94;56.80
59272;BME280;45043;51.068;7.026;2023-02-10T01:58:24;102411.75;;;1.00;56.57
59272;BME280;45043;51.068;7.026;2023-02-10T02:01:25;102414.88;;;1.07;56.29
59272;BME280;45043;51.068;7.026;2023-02-10T02:04:26;102425.34;;;1.07;56.59
59272;BME280;45043;51.068;7.026;2023-02-10T02:07:29;102414.88;;;1.07;56.15
59272;BME280;45043;51.068;7.026;2023-02-10T02:10:40;102421.50;;;0.98;56.62
59272;BME280;45043;51.068;7.026;2023-02-10T02:13:55;102427.06;;;0.92;56.66
59272;BME280;45043;51.068;7.026;2023-02-10T02:17:21;102426.34;;;0.89;56.92
59272;BME280;45043;51.068;7.026;2023-02-10T02:27:15;102427.88;;;0.93;56.44
59272;BME280;45043;51.068;7.026;2023-02-10T02:33:39;102429.38;;;0.81;56.92
59272;BME280;45043;51.068;7.026;2023-02-10T02:36:48;102426.94;;;0.78;57.17
59272;BME280;45043;51.068;7.026;2023-02-10T02:39:51;102440.69;;;0.81;57.23
59272;BME280;45043;51.068;7.026;2023-02-10T02:42:52;102438.69;;;0.87;56.90
59272;BME280;45043;51.068;7.026;2023-02-10T02:46:10;102442.59;;;0.95;56.40
59272;BME280;45043;51.068;7.026;2023-02-10T02:52:35;102442.59;;;0.95;57.10
59272;BME280;45043;51.068;7.026;2023-02-10T02:58:56;102435.97;;;0.88;57.33
59272;BME280;45043;51.068;7.026;2023-02-10T03:02:03;102446.44;;;0.88;56.55
59272;BME280;45043;51.068;7.026;2023-02-10T03:05:04;102439.38;;;0.90;56.83
59272;BME280;45043;51.068;7.026;2023-02-10T03:08:05;102451.50;;;0.91;56.94
59272;BME280;45043;51.068;7.026;2023-02-10T03:11:05;102456.16;;;0.86;57.12
59272;BME280;45043;51.068;7.026;2023-02-10T03:14:06;102452.78;;;0.84;56.81
59272;BME280;45043;51.068;7.026;2023-02-10T03:17:06;102451.78;;;0.87;56.74
59272;BME280;45043;51.068;7.026;2023-02-10T03:20:07;102449.81;;;0.90;57.04
59272;BME280;45043;51.068;7.026;2023-02-10T03:23:08;102461.84;;;0.94;56.50
59272;BME280;45043;51.068;7.026;2023-02-10T03:26:09;102461.91;;;0.93;56.67
59272;BME280;45043;51.068;7.026;2023-02-10T03:29:11;102459.28;;;0.93;56.97
59272;BME280;45043;51.068;7.026;2023-02-10T03:32:11;102464.47;;;0.94;56.87
59272;BME280;45043;51.068;7.026;2023-02-10T03:35:12;102460.28;;;0.90;56.65
59272;BME280;45043;51.068;7.026;2023-02-10T03:38:13;102452.19;;;0.79;56.70
59272;BME280;45043;51.068;7.026;2023-02-10T03:41:14;102451.47;;;0.59;57.23
59272;BME280;45043;51.068;7.026;2023-02-10T03:44:14;102446.06;;;0.47;57.38
59272;BME280;45043;51.068;7.026;2023-02-10T03:47:15;102433.56;;;0.36;57.92
59272;BME280;45043;51.068;7.026;2023-02-10T03:50:15;102424.72;;;0.23;58.13
59272;BME280;45043;51.068;7.026;2023-02-10T03:53:16;102415.50;;;0.16;58.35
59272;BME280;45043;51.068;7.026;2023-02-10T03:56:16;102410.97;;;0.19;58.39
59272;BME280;45043;51.068;7.026;2023-02-10T03:59:17;102406.56;;;0.20;58.40
59272;BME280;45043;51.068;7.026;2023-02-10T04:02:17;102400.13;;;0.09;58.33
59272;BME280;45043;51.068;7.026;2023-02-10T04:05:18;102395.38;;;0.00;58.89
59272;BME280;45043;51.068;7.026;2023-02-10T04:08:18;102391.31;;;-0.05;58.79
59272;BME280;45043;51.068;7.026;2023-02-10T04:11:19;102413.84;;;-0.03;58.74
59272;BME280;45043;51.068;7.026;2023-02-10T04:14:19;102425.03;;;-0.01;58.75
59272;BME280;45043;51.068;7.026;2023-02-10T04:17:20;102423.38;;;-0.02;58.57
59272;BME280;45043;51.068;7.026;2023-02-10T04:20:20;102421.50;;;0.00;58.82
59272;BME280;45043;51.068;7.026;2023-02-10T04:23:21;102430.91;;;0.04;58.73
59272;BME280;45043;51.068;7.026;2023-02-10T04:26:22;102429.97;;;0.05;58.55
59272;BME280;45043;51.068;7.026;2023-02-10T04:29:23;102432.34;;;0.10;58.72
59272;BME280;45043;51.068;7.026;2023-02-10T04:32:23;102438.41;;;0.10;58.90
59272;BME280;45043;51.068;7.026;2023-02-10T04:35:24;102435.34;;;0.02;58.59
59272;BME280;45043;51.068;7.026;2023-02-10T04:38:25;102446.41;;;0.07;58.70
59272;BME280;45043;51.068;7.026;2023-02-10T04:41:25;102458.72;;;0.05;58.75
59272;BME280;45043;51.068;7.026;2023-02-10T04:44:26;102447.56;;;0.02;58.77
59272;BME280;45043;51.068;7.026;2023-02-10T04:47:27;102445.03;;;0.00;58.74
59272;BME280;45043;51.068;7.026;2023-02-10T04:50:28;102447.03;;;-0.05;58.93
59272;BME280;45043;51.068;7.026;2023-02-10T04:53:28;102439.69;;;-0.14;58.82
59272;BME280;45043;51.068;7.026;2023-02-10T04:56:29;102450.44;;;-0.20;58.98
59272;BME280;45043;51.068;7.026;2023-02-10T04:59:29;102463.25;;;-0.16;59.33
59272;BME280;45043;51.068;7.026;2023-02-10T05:02:29;102465.81;;;-0.14;59.40
59272;BME280;45043;51.068;7.026;2023-02-10T05:05:30;102464.09;;;-0.15;58.97
59272;BME280;45043;51.068;7.026;2023-02-10T05:08:30;102455.56;;;-0.19;58.97
59272;BME280;45043;51.068;7.026;2023-02-10T05:11:31;102462.56;;;-0.19;58.92
59272;BME280;45043;51.068;7.026;2023-02-10T05:14:31;102463.66;;;-0.06;59.56
59272;BME280;45043;51.068;7.026;2023-02-10T05:17:32;102456.97;;;0.22;59.73
59272;BME280;45043;51.068;7.026;2023-02-10T05:20:33;102459.94;;;0.49;58.92
59272;BME280;45043;51.068;7.026;2023-02-10T05:23:33;102454.88;;;0.62;58.33
59272;BME280;45043;51.068;7.026;2023-02-10T05:26:34;102460.88;;;0.79;58.49
59272;BME280;45043;51.068;7.026;2023-02-10T05:29:34;102462.41;;;0.83;58.07
59272;BME280;45043;51.068;7.026;2023-02-10T05:32:35;102463.94;;;1.03;57.36
59272;BME280;45043;51.068;7.026;2023-02-10T05:35:36;102469.50;;;1.13;57.29
59272;BME280;45043;51.068;7.026;2023-02-10T05:38:36;102461.81;;;1.26;56.46
59272;BME280;45043;51.068;7.026;2023-02-10T05:41:37;102470.75;;;1.22;56.37
59272;BME280;45043;51.068;7.026;2023-02-10T05:44:37;102465.69;;;1.19;56.00
59272;BME280;45043;51.068;7.026;2023-02-10T05:47:38;102475.34;;;1.02;55.95
59272;BME280;45043;51.068;7.026;2023-02-10T05:50:39;102467.53;;;0.85;56.04
59272;BME280;45043;51.068;7.026;2023-02-10T05:53:47;102473.88;;;0.81;56.11
59272;BME280;45043;51.068;7.026;2023-02-10T05:56:48;102481.09;;;0.93;55.99
59272;BME280;45043;51.068;7.026;2023-02-10T05:59:50;102474.47;;;0.86;55.62
59272;BME280;45043;51.068;7.026;2023-02-10T06:02:50;102473.97;;;0.64;55.75
59272;BME280;45043;51.068;7.026;2023-02-10T06:05:51;102468.69;;;0.48;56.36
59272;BME280;45043;51.068;7.026;2023-02-10T06:08:52;102469.34;;;0.51;56.22
59272;BME280;45043;51.068;7.026;2023-02-10T06:11:53;102468.84;;;0.45;56.66
59272;BME280;45043;51.068;7.026;2023-02-10T06:14:54;102464.97;;;0.52;56.20
59272;BME280;45043;51.068;7.026;2023-02-10T06:17:54;102466.16;;;0.46;56.41
59272;BME280;45043;51.068;7.026;2023-02-10T06:20:55;102480.09;;;0.29;56.92
59272;BME280;45043;51.068;7.026;2023-02-10T06:23:56;102481.81;;;0.30;57.28
59272;BME280;45043;51.068;7.026;2023-02-10T06:26:56;102478.88;;;0.52;57.12
59272;BME280;45043;51.068;7.026;2023-02-10T06:29:57;102484.72;;;0.57;57.06
59272;BME280;45043;51.068;7.026;2023-02-10T06:32:58;102499.81;;;0.52;56.71
59272;BME280;45043;51.068;7.026;2023-02-10T06:35:58;102495.22;;;0.40;56.80
59272;BME280;45043;51.068;7.026;2023-02-10T06:38:59;102501.25;;;0.25;56.96
59272;BME280;45043;51.068;7.026;2023-02-10T06:41:59;102505.50;;;0.10;57.47
59272;BME280;45043;51.068;7.026;2023-02-10T06:45:01;102508.38;;;0.05;57.59
59272;BME280;45043;51.068;7.026;2023-02-10T06:48:02;102514.13;;;0.12;57.91
59272;BME280;45043;51.068;7.026;2023-02-10T06:51:03;102520.03;;;0.16;57.56
59272;BME280;45043;51.068;7.026;2023-02-10T06:54:03;102519.25;;;0.14;57.52
59272;BME280;45043;51.068;7.026;2023-02-10T06:57:03;102515.28;;;0.06;57.61
59272;BME280;45043;51.068;7.026;2023-02-10T07:00:06;102533.66;;;0.05;57.83
59272;BME280;45043;51.068;7.026;2023-02-10T07:03:08;102543.56;;;-0.02;58.03
59272;BME280;45043;51.068;7.026;2023-02-10T07:06:09;102536.47;;;0.00;58.18
59272;BME280;45043;51.068;7.026;2023-02-10T07:09:09;102538.19;;;0.01;58.22
59272;BME280;45043;51.068;7.026;2023-02-10T07:12:10;102542.78;;;-0.04;58.06
59272;BME280;45043;51.068;7.026;2023-02-10T07:15:10;102526.50;;;-0.09;58.23
59272;BME280;45043;51.068;7.026;2023-02-10T07:18:10;102549.78;;;-0.04;58.93
59272;BME280;45043;51.068;7.026;2023-02-10T07:21:11;102542.88;;;-0.05;58.26
59272;BME280;45043;51.068;7.026;2023-02-10T07:24:11;102536.66;;;-0.03;58.28
59272;BME280;45043;51.068;7.026;2023-02-10T07:27:12;102536.66;;;-0.03;57.98
59272;BME280;45043;51.068;7.026;2023-02-10T07:30:13;102533.41;;;-0.08;58.12
59272;BME280;45043;51.068;7.026;2023-02-10T07:33:13;102536.34;;;-0.14;58.37
59272;BME280;45043;51.068;7.026;2023-02-10T07:36:15;102543.41;;;-0.16;58.15
59272;BME280;45043;51.068;7.026;2023-02-10T07:39:16;102533.19;;;-0.21;58.60
59272;BME280;45043;51.068;7.026;2023-02-10T07:42:16;102529.53;;;-0.18;58.81
59272;BME280;45043;51.068;7.026;2023-02-10T07:45:44;102531.25;;;0.00;58.89
59272;BME280;45043;51.068;7.026;2023-02-10T07:48:45;102527.09;;;0.14;58.88
59272;BME280;45043;51.068;7.026;2023-02-10T07:51:45;102535.69;;;0.33;58.25
59272;BME280;45043;51.068;7.026;2023-02-10T07:54:47;102532.91;;;0.36;58.07
59272;BME280;45043;51.068;7.026;2023-02-10T07:57:48;102533.41;;;0.27;57.86
59272;BME280;45043;51.068;7.026;2023-02-10T08:00:48;102541.41;;;0.24;58.34
59272;BME280;45043;51.068;7.026;2023-02-10T08:03:49;102536.41;;;0.19;58.22
59272;BME280;45043;51.068;7.026;2023-02-10T08:06:50;102544.47;;;0.15;58.73
59272;BME280;45043;51.068;7.026;2023-02-10T08:09:50;102539.25;;;0.15;58.86
59272;BME280;45043;51.068;7.026;2023-02-10T08:12:51;102550.63;;;0.14;58.74
59272;BME280;45043;51.068;7.026;2023-02-10T08:15:53;102547.91;;;0.15;58.88
59272;BME280;45043;51.068;7.026;2023-02-10T08:18:53;102549.09;;;0.09;59.13
59272;BME280;45043;51.068;7.026;2023-02-10T08:21:54;102546.09;;;0.17;59.46
59272;BME280;45043;51.068;7.026;2023-02-10T08:24:54;102524.19;;;0.20;59.28
59272;BME280;45043;51.068;7.026;2023-02-10T08:27:54;102543.91;;;0.43;59.29
59272;BME280;45043;51.068;7.026;2023-02-10T08:30:59;102542.44;;;0.54;59.31
59272;BME280;45043;51.068;7.026;2023-02-10T08:34:00;102542.63;;;0.67;58.99
59272;BME280;45043;51.068;7.026;2023-02-10T08:37:00;102544.25;;;0.86;58.34
59272;BME280;45043;51.068;7.026;2023-02-10T08:40:01;102557.19;;;0.89;58.61
59272;BME280;45043;51.068;7.026;2023-02-10T08:43:02;102567.81;;;0.86;59.17
59272;BME280;45043;51.068;7.026;2023-02-10T08:46:03;102567.47;;;0.76;58.58
59272;BME280;45043;51.068;7.026;2023-02-10T08:49:04;102564.06;;;0.74;58.95
59272;BME280;45043;51.068;7.026;2023-02-10T08:52:05;102564.06;;;0.74;58.84
59272;BME280;45043;51.068;7.026;2023-02-10T08:55:06;102565.31;;;0.67;59.19
59272;BME280;45043;51.068;7.026;2023-02-10T08:58:07;102573.25;;;0.65;59.06
59272;BME280;45043;51.068;7.026;2023-02-10T09:01:13;102574.25;;;0.63;59.14
59272;BME280;45043;51.068;7.026;2023-02-10T09:04:15;102575.34;;;0.58;59.83
59272;BME280;45043;51.068;7.026;2023-02-10T09:07:15;102570.34;;;0.71;59.27
59272;BME280;45043;51.068;7.026;2023-02-10T09:10:16;102566.69;;;0.74;59.05
59272;BME280;45043;51.068;7.026;2023-02-10T09:13:17;102566.28;;;0.81;59.15
59272;BME280;45043;51.068;7.026;2023-02-10T09:16:17;102567.75;;;0.87;59.20
59272;BME280;45043;51.068;7.026;2023-02-10T09:19:18;102570.56;;;1.00;58.77
59272;BME280;45043;51.068;7.026;2023-02-10T09:22:20;102571.19;;;1.05;59.00
59272;BME280;45043;51.068;7.026;2023-02-10T09:25:21;102578.19;;;1.04;58.87
59272;BME280;45043;51.068;7.026;2023-02-10T09:28:22;102580.72;;;1.06;58.77
59272;BME280;45043;51.068;7.026;2023-02-10T09:31:23;102586.13;;;1.19;58.75
59272;BME280;45043;51.068;7.026;2023-02-10T09:34:23;102578.63;;;1.28;58.45
59272;BME280;45043;51.068;7.026;2023-02-10T09:37:24;102574.38;;;1.26;58.29
59272;BME280;45043;51.068;7.026;2023-02-10T09:40:31;102582.34;;;1.40;58.36
59272;BME280;45043;51.068;7.026;2023-02-10T09:50:28;102575.66;;;1.66;57.46
59272;BME280;45043;51.068;7.026;2023-02-10T09:53:31;102586.06;;;1.68;58.21
59272;BME280;45043;51.068;7.026;2023-02-10T09:56:31;102591.69;;;1.76;58.14
59272;BME280;45043;51.068;7.026;2023-02-10T09:59:34;102592.41;;;1.64;57.48
59272;BME280;45043;51.068;7.026;2023-02-10T10:02:45;102596.28;;;1.57;58.04
59272;BME280;45043;51.068;7.026;2023-02-10T10:05:52;102597.66;;;1.64;57.83
59272;BME280;45043;51.068;7.026;2023-02-10T10:09:42;102606.25;;;1.66;57.41
59272;BME280;45043;51.068;7.026;2023-02-10T10:12:43;102608.94;;;1.80;57.65
59272;BME280;45043;51.068;7.026;2023-02-10T10:16:19;102605.22;;;1.84;57.27
59272;BME280;45043;51.068;7.026;2023-02-10T10:19:45;102618.53;;;1.95;57.75
59272;BME280;45043;51.068;7.026;2023-02-10T10:22:52;102615.25;;;2.22;57.54
59272;BME280;45043;51.068;7.026;2023-02-10T10:26:00;102617.94;;;2.36;56.61
59272;BME280;45043;51.068;7.026;2023-02-10T10:35:24;102605.59;;;2.67;56.15
59272;BME280;45043;51.068;7.026;2023-02-10T10:38:32;102610.41;;;2.60;56.46
59272;BME280;45043;51.068;7.026;2023-02-10T10:41:37;102605.25;;;2.73;56.33
59272;BME280;45043;51.068;7.026;2023-02-10T10:44:39;102606.47;;;2.96;56.21
59272;BME280;45043;51.068;7.026;2023-02-10T10:47:45;102601.78;;;4.11;52.35
59272;BME280;45043;51.068;7.026;2023-02-10T10:50:47;102594.88;;;3.56;54.57
59272;BME280;45043;51.068;7.026;2023-02-10T10:53:54;102589.88;;;3.38;54.75
59272;BME280;45043;51.068;7.026;2023-02-10T10:57:00;102587.47;;;3.34;54.30
59272;BME280;45043;51.068;7.026;2023-02-10T11:00:15;102595.56;;;3.31;54.56
59272;BME280;45043;51.068;7.026;2023-02-10T11:03:18;102590.31;;;3.31;54.44
59272;BME280;45043;51.068;7.026;2023-02-10T11:06:18;102582.34;;;3.18;54.69
59272;BME280;45043;51.068;7.026;2023-02-10T11:12:34;102574.78;;;2.99;54.87
59272;BME280;45043;51.068;7.026;2023-02-10T11:15:40;102580.13;;;2.97;54.82
59272;BME280;45043;51.068;7.026;2023-02-10T11:18:57;102577.09;;;3.04;55.21
59272;BME280;45043;51.068;7.026;2023-02-10T11:21:58;102576.19;;;3.05;54.89
59272;BME280;45043;51.068;7.026;2023-02-10T11:25:01;102569.22;;;3.04;55.00
59272;BME280;45043;51.068;7.026;2023-02-10T11:28:04;102560.97;;;3.10;55.38
59272;BME280;45043;51.068;7.026;2023-02-10T11:34:31;102560.81;;;2.98;55.56
59272;BME280;45043;51.068;7.026;2023-02-10T11:37:35;102551.13;;;3.13;55.03
59272;BME280;45043;51.068;7.026;2023-02-10T11:41:01;102537.56;;;3.34;54.72
59272;BME280;45043;51.068;7.026;2023-02-10T11:47:22;102542.44;;;3.67;53.90
59272;BME280;45043;51.068;7.026;2023-02-10T11:50:27;102532.81;;;3.80;53.58
59272;BME280;45043;51.068;7.026;2023-02-10T11:53:31;102535.25;;;3.83;53.43
59272;BME280;45043;51.068;7.026;2023-02-10T12:00:38;102524.50;;;3.73;53.02
59272;BME280;45043;51.068;7.026;2023-02-10T12:04:03;102525.13;;;3.64;53.56
59272;BME280;45043;51.068;7.026;2023-02-10T12:07:32;102521.84;;;3.61;53.72
59272;BME280;45043;51.068;7.026;2023-02-10T12:26:48;102517.03;;;3.80;53.00
59272;BME280;45043;51.068;7.026;2023-02-10T12:30:33;102507.88;;;3.73;53.14
59272;BME280;45043;51.068;7.026;2023-02-10T12:33:48;102498.66;;;3.80;53.18
59272;BME280;45043;51.068;7.026;2023-02-10T12:37:10;102494.22;;;3.93;53.07
59272;BME280;45043;51.068;7.026;2023-02-10T12:53:08;102474.91;;;4.45;51.70
59272;BME280;45043;51.068;7.026;2023-02-10T12:56:26;102474.53;;;4.63;50.55
59272;BME280;45043;51.068;7.026;2023-02-10T12:59:42;102476.91;;;4.91;50.45
59272;BME280;45043;51.068;7.026;2023-02-10T13:02:56;102467.13;;;5.05;49.67
59272;BME280;45043;51.068;7.026;2023-02-10T13:06:16;102470.44;;;5.32;49.44
59272;BME280;45043;51.068;7.026;2023-02-10T13:09:42;102454.50;;;5.58;48.92
59272;BME280;45043;51.068;7.026;2023-02-10T13:12:48;102452.00;;;5.79;48.63
59272;BME280;45043;51.068;7.026;2023-02-10T13:16:10;102438.97;;;5.88;47.95
59272;BME280;45043;51.068;7.026;2023-02-10T13:22:53;102437.06;;;5.79;46.66
59272;BME280;45043;51.068;7.026;2023-02-10T13:29:43;102441.84;;;5.97;46.63
59272;BME280;45043;51.068;7.026;2023-02-10T13:33:04;102439.09;;;5.87;46.48
59272;BME280;45043;51.068;7.026;2023-02-10T13:36:15;102437.28;;;5.76;46.53
59272;BME280;45043;51.068;7.026;2023-02-10T13:39:19;102432.22;;;5.73;46.58
59272;BME280;45043;51.068;7.026;2023-02-10T13:42:27;102438.44;;;5.61;46.08
59272;BME280;45043;51.068;7.026;2023-02-10T13:45:31;102439.72;;;5.55;46.08
59272;BME280;45043;51.068;7.026;2023-02-10T13:48:34;102437.41;;;5.39;46.80
59272;BME280;45043;51.068;7.026;2023-02-10T13:51:37;102430.16;;;5.30;46.99
59272;BME280;45043;51.068;7.026;2023-02-10T13:54:38;102442.72;;;5.27;46.79
59272;BME280;45043;51.068;7.026;2023-02-10T13:57:39;102434.56;;;5.43;46.71
59272;BME280;45043;51.068;7.026;2023-02-10T14:00:53;102421.31;;;5.66;46.50
59272;BME280;45043;51.068;7.026;2023-02-10T14:03:55;102427.59;;;5.99;46.00
59272;BME280;45043;51.068;7.026;2023-02-10T14:06:55;102422.09;;;6.02;45.07
59272;BME280;45043;51.068;7.026;2023-02-10T14:13:24;102424.22;;;5.97;45.01
59272;BME280;45043;51.068;7.026;2023-02-10T14:19:35;102415.44;;;5.74;44.73
59272;BME280;45043;51.068;7.026;2023-02-10T14:22:37;102408.28;;;5.76;44.47
59272;BME280;45043;51.068;7.026;2023-02-10T14:25:39;102411.16;;;5.84;44.37
59272;BME280;45043;51.068;7.026;2023-02-10T14:28:42;102412.13;;;5.83;44.34
59272;BME280;45043;51.068;7.026;2023-02-10T14:31:52;102409.72;;;5.80;44.26
59272;BME280;45043;51.068;7.026;2023-02-10T14:34:58;102411.38;;;5.70;44.10
59272;BME280;45043;51.068;7.026;2023-02-10T14:37:59;102393.50;;;5.62;44.69
59272;BME280;45043;51.068;7.026;2023-02-10T14:41:01;102400.09;;;5.57;44.40
59272;BME280;45043;51.068;7.026;2023-02-10T14:44:05;102406.22;;;5.33;44.43
59272;BME280;45043;51.068;7.026;2023-02-10T14:47:17;102407.41;;;5.29;44.70
59272;BME280;45043;51.068;7.026;2023-02-10T14:50:32;102407.56;;;5.39;44.54
59272;BME280;45043;51.068;7.026;2023-02-10T14:53:34;102413.34;;;5.20;44.43
59272;BME280;45043;51.068;7.026;2023-02-10T14:56:37;102411.16;;;5.14;45.03
59272;BME280;45043;51.068;7.026;2023-02-10T14:59:37;102405.31;;;5.22;44.95
59272;BME280;45043;51.068;7.026;2023-02-10T15:02:38;102408.69;;;5.24;44.85
59272;BME280;45043;51.068;7.026;2023-02-10T15:05:45;102398.59;;;5.17;44.69
59272;BME280;45043;51.068;7.026;2023-02-10T15:12:08;102405.84;;;5.03;45.15
59272;BME280;45043;51.068;7.026;2023-02-10T15:15:42;102393.84;;;4.99;45.56
59272;BME280;45043;51.068;7.026;2023-02-10T15:18:47;102394.59;;;5.12;45.30
59272;BME280;45043;51.068;7.026;2023-02-10T15:21:50;102405.09;;;5.25;45.28
59272;BME280;45043;51.068;7.026;2023-02-10T15:24:52;102393.72;;;5.24;45.10
59272;BME280;45043;51.068;7.026;2023-02-10T15:27:54;102393.94;;;5.21;45.17
59272;BME280;45043;51.068;7.026;2023-02-10T15:30:59;102392.94;;;5.11;45.47
59272;BME280;45043;51.068;7.026;2023-02-10T15:34:13;102396.13;;;5.03;46.03
59272;BME280;45043;51.068;7.026;2023-02-10T15:37:20;102399.69;;;4.91;46.05
59272;BME280;45043;51.068;7.026;2023-02-10T15:40:26;102409.94;;;4.83;46.16
59272;BME280;45043;51.068;7.026;2023-02-10T15:43:31;102404.06;;;4.79;46.72
59272;BME280;45043;51.068;7.026;2023-02-10T15:46:32;102408.28;;;4.69;46.65
59272;BME280;45043;51.068;7.026;2023-02-10T15:49:33;102417.59;;;4.62;46.86
59272;BME280;45043;51.068;7.026;2023-02-10T15:52:39;102419.94;;;4.54;47.30
59272;BME280;45043;51.068;7.026;2023-02-10T15:55:41;102415.41;;;4.43;47.41
59272;BME280;45043;51.068;7.026;2023-02-10T15:58:42;102406.28;;;4.36;47.57
59272;BME280;45043;51.068;7.026;2023-02-10T16:01:42;102412.50;;;4.35;48.22
59272;BME280;45043;51.068;7.026;2023-02-10T16:04:43;102407.44;;;4.32;47.81
59272;BME280;45043;51.068;7.026;2023-02-10T16:07:46;102405.53;;;4.34;48.11
59272;BME280;45043;51.068;7.026;2023-02-10T16:10:47;102393.31;;;4.33;48.18
59272;BME280;45043;51.068;7.026;2023-02-10T16:13:52;102391.44;;;4.35;48.17
59272;BME280;45043;51.068;7.026;2023-02-10T16:16:55;102389.31;;;4.40;48.57
59272;BME280;45043;51.068;7.026;2023-02-10T16:19:57;102382.47;;;4.37;48.42
59272;BME280;45043;51.068;7.026;2023-02-10T16:22:57;102378.72;;;4.29;48.54
59272;BME280;45043;51.068;7.026;2023-02-10T16:25:58;102373.78;;;4.24;48.68
59272;BME280;45043;51.068;7.026;2023-02-10T16:28:59;102378.75;;;4.16;49.09
59272;BME280;45043;51.068;7.026;2023-02-10T16:32:00;102375.56;;;4.11;48.71
59272;BME280;45043;51.068;7.026;2023-02-10T16:35:00;102367.19;;;4.06;49.02
59272;BME280;45043;51.068;7.026;2023-02-10T16:38:02;102385.59;;;4.06;49.31
59272;BME280;45043;51.068;7.026;2023-02-10T16:41:02;102378.75;;;4.03;49.35
59272;BME280;45043;51.068;7.026;2023-02-10T16:44:03;102394.72;;;4.00;49.44
59272;BME280;45043;51.068;7.026;2023-02-10T16:47:03;102391.25;;;4.00;49.25
59272;BME280;45043;51.068;7.026;2023-02-10T16:50:05;102397.56;;;3.97;49.87
59272;BME280;45043;51.068;7.026;2023-02-10T16:53:07;102394.72;;;4.00;49.46
59272;BME280;45043;51.068;7.026;2023-02-10T16:56:16;102399.16;;;4.00;50.00
59272;BME280;45043;51.068;7.026;2023-02-10T16:59:18;102402.75;;;3.99;49.85
59272;BME280;45043;51.068;7.026;2023-02-10T17:02:18;102392.63;;;3.92;49.56
59272;BME280;45043;51.068;7.026;2023-02-10T17:05:20;102398.97;;;3.90;50.05
59272;BME280;45043;51.068;7.026;2023-02-10T17:08:21;102393.06;;;3.86;49.89
59272;BME280;45043;51.068;7.026;2023-02-10T17:11:22;102399.47;;;3.82;49.74
59272;BME280;45043;51.068;7.026;2023-02-10T17:14:22;102407.66;;;3.78;50.18
59272;BME280;45043;51.068;7.026;2023-02-10T17:17:23;102405.16;;;3.76;49.79
59272;BME280;45043;51.068;7.026;2023-02-10T17:20:25;102390.00;;;3.67;49.83
59272;BME280;45043;51.068;7.026;2023-02-10T17:23:26;102408.00;;;3.73;50.04
59272;BME280;45043;51.068;7.026;2023-02-10T17:26:27;102397.88;;;3.67;50.44
59272;BME280;45043;51.068;7.026;2023-02-10T17:29:27;102400.41;;;3.68;50.03
59272;BME280;45043;51.068;7.026;2023-02-10T17:32:28;102401.47;;;3.66;50.37
59272;BME280;45043;51.068;7.026;2023-02-10T17:35:29;102413.84;;;3.64;50.57
59272;BME280;45043;51.068;7.026;2023-02-10T17:38:29;102410.50;;;3.62;50.33
59272;BME280;45043;51.068;7.026;2023-02-10T17:41:49;102408.06;;;3.59;50.55
59272;BME280;45043;51.068;7.026;2023-02-10T17:44:50;102417.63;;;3.60;51.17